Time;durP1;ratioP1;P1;durP2;ratioP2;P2;SDS_P1;SDS_P2;PMS_P1;PMS_P2;Temp;Humidity;BMP_temperature;BMP_pressure;BME280_temperature;BME280_humidity;BME280_pressure;Samples;Min_cycle;Max_cycle;Signal;HPM_P1;HPM_P2
2023/12/18 00:02:07;;;;;;;6.23;2.07;;;;;;;5.43;100.00;102529.88;5106963;28;20122;-65
2023/12/18 00:04:33;;;;;;;6.33;2.17;;;;;;;5.42;100.00;102527.16;5106911;28;20353;-65
2023/12/18 00:06:58;;;;;;;6.07;1.80;;;;;;;5.40;100.00;102528.69;5098494;28;20055;-66
2023/12/18 00:09:24;;;;;;;8.70;2.03;;;;;;;5.40;100.00;102523.47;5092851;28;20040;-66
2023/12/18 00:11:49;;;;;;;6.40;2.38;;;;;;;5.37;100.00;102512.72;5091784;28;20085;-64
2023/12/18 00:14:14;;;;;;;5.63;2.20;;;;;;;5.34;100.00;102522.91;5093227;28;20492;-62
2023/12/18 00:16:40;;;;;;;5.80;1.83;;;;;;;5.32;100.00;102524.47;5093075;28;20115;-63
2023/12/18 00:19:05;;;;;;;6.67;2.13;;;;;;;5.28;100.00;102520.63;5092418;28;20040;-65
2023/12/18 00:21:31;;;;;;;6.18;1.95;;;;;;;5.23;100.00;102503.59;5092714;28;20031;-64
2023/12/18 00:23:56;;;;;;;5.47;1.97;;;;;;;5.24;100.00;102510.66;5092922;28;20047;-64
2023/12/18 00:26:23;;;;;;;5.57;1.80;;;;;;;5.26;100.00;102509.13;5091983;28;20591;-64
2023/12/18 00:28:48;;;;;;;6.25;2.22;;;;;;;5.25;100.00;102502.03;5092436;28;20048;-63
2023/12/18 00:31:14;;;;;;;5.93;2.37;;;;;;;5.25;100.00;102496.81;5094663;28;20396;-64
2023/12/18 00:33:39;;;;;;;5.13;1.70;;;;;;;5.24;100.00;102492.34;5095074;28;20438;-63
2023/12/18 00:36:05;;;;;;;8.23;1.97;;;;;;;5.21;100.00;102489.47;5092130;28;20507;-64
2023/12/18 00:38:30;;;;;;;5.77;2.17;;;;;;;5.21;100.00;102490.38;5092984;28;20316;-64
2023/12/18 00:40:56;;;;;;;5.47;2.03;;;;;;;5.21;100.00;102481.59;5089136;28;20027;-64
2023/12/18 00:43:21;;;;;;;6.50;2.33;;;;;;;5.22;100.00;102480.81;5092435;28;20024;-63
2023/12/18 00:45:47;;;;;;;6.30;1.90;;;;;;;5.19;100.00;102488.38;5092564;28;20044;-64
2023/12/18 00:48:12;;;;;;;5.97;2.10;;;;;;;5.16;100.00;102475.94;5092292;28;20174;-63
2023/12/18 00:50:38;;;;;;;5.88;2.03;;;;;;;5.15;100.00;102468.88;5091852;28;20637;-65
2023/12/18 00:53:03;;;;;;;6.30;2.00;;;;;;;5.16;100.00;102469.78;5092551;28;20039;-63
2023/12/18 00:55:28;;;;;;;7.33;2.30;;;;;;;5.14;100.00;102466.09;5092273;28;20482;-64
2023/12/18 01:00:07;;;;;;;5.65;1.98;;;;;;;5.12;100.00;102473.84;5098307;27;20726;-65
2023/12/18 01:02:32;;;;;;;7.82;2.40;;;;;;;5.12;100.00;102465.06;5087520;28;20048;-66
2023/12/18 01:04:57;;;;;;;7.93;2.70;;;;;;;5.10;100.00;102474.47;5087603;28;20560;-65
2023/12/18 01:07:23;;;;;;;6.50;2.10;;;;;;;5.07;100.00;102472.50;5087573;28;20044;-65
2023/12/18 01:09:49;;;;;;;6.47;2.00;;;;;;;5.08;100.00;102462.94;5086966;28;20620;-65
2023/12/18 01:12:14;;;;;;;6.77;2.50;;;;;;;5.07;100.00;102469.88;5087674;28;20048;-65
2023/12/18 01:14:39;;;;;;;6.23;1.90;;;;;;;5.05;100.00;102466.19;5086328;28;20040;-65
2023/12/18 01:17:05;;;;;;;6.28;2.20;;;;;;;5.03;100.00;102464.25;5087412;28;20122;-65
2023/12/18 01:21:44;;;;;;;5.40;2.13;;;;;;;5.00;100.00;102469.19;5087350;27;20364;-65
2023/12/18 01:24:10;;;;;;;7.10;2.30;;;;;;;4.95;100.00;102463.53;5087522;28;20035;-65
2023/12/18 01:26:36;;;;;;;6.57;2.17;;;;;;;4.95;100.00;102459.97;5087873;28;20050;-63
2023/12/18 01:29:01;;;;;;;6.07;2.10;;;;;;;4.96;100.00;102462.75;5087141;28;20067;-62
2023/12/18 01:31:27;;;;;;;5.90;1.97;;;;;;;4.95;100.00;102462.59;5087821;28;20694;-64
2023/12/18 01:33:53;;;;;;;6.10;2.70;;;;;;;4.92;100.00;102463.25;5087542;28;20039;-64
2023/12/18 01:36:18;;;;;;;6.57;1.88;;;;;;;4.93;100.00;102459.88;5087673;28;20078;-64
2023/12/18 01:38:45;;;;;;;7.20;2.40;;;;;;;4.95;100.00;102467.84;5086802;28;20444;-64
2023/12/18 01:41:11;;;;;;;6.28;2.30;;;;;;;4.93;100.00;102457.25;5087393;28;20400;-64
2023/12/18 01:43:36;;;;;;;5.40;1.97;;;;;;;4.92;100.00;102457.09;5087535;28;20036;-63
2023/12/18 01:46:03;;;;;;;8.73;2.80;;;;;;;4.93;100.00;102457.25;5087330;28;20037;-64
2023/12/18 01:48:29;;;;;;;6.35;2.30;;;;;;;4.93;100.00;102465.09;5086935;28;20051;-64
2023/12/18 01:50:56;;;;;;;6.68;2.28;;;;;;;4.92;100.00;102462.34;5086944;28;20075;-64
2023/12/18 01:53:36;;;;;;;7.75;2.20;;;;;;;4.92;100.00;102460.66;5087197;28;20120;-64
2023/12/18 01:56:02;;;;;;;6.47;2.20;;;;;;;4.94;100.00;102458.16;5087290;28;20036;-63
2023/12/18 01:58:31;;;;;;;7.13;2.50;;;;;;;4.93;100.00;102456.34;5086647;28;20040;-62
2023/12/18 02:00:57;;;;;;;6.15;2.28;;;;;;;4.90;100.00;102456.94;5104662;28;20035;-64
2023/12/18 02:03:23;;;;;;;7.05;2.38;;;;;;;4.89;100.00;102459.44;5107401;28;20046;-64
2023/12/18 02:05:49;;;;;;;8.57;2.80;;;;;;;4.91;100.00;102457.88;5107195;28;20031;-63
2023/12/18 02:08:15;;;;;;;10.23;2.60;;;;;;;4.93;100.00;102448.47;5107241;28;20056;-63
2023/12/18 02:10:40;;;;;;;6.00;2.45;;;;;;;4.92;100.00;102449.25;5106981;28;20115;-63
2023/12/18 02:13:06;;;;;;;7.07;2.37;;;;;;;4.92;100.00;102462.34;5107267;28;20040;-64
2023/12/18 02:15:31;;;;;;;7.67;2.40;;;;;;;4.91;100.00;102458.81;5107145;28;20097;-65
2023/12/18 02:17:56;;;;;;;7.30;2.90;;;;;;;4.94;100.00;102460.75;5107210;28;20030;-64
2023/12/18 02:20:22;;;;;;;7.87;2.60;;;;;;;4.94;100.00;102463.38;5105889;28;20413;-63
2023/12/18 02:22:47;;;;;;;7.80;2.70;;;;;;;4.93;100.00;102453.72;5107146;28;20035;-64
2023/12/18 02:25:15;;;;;;;7.07;2.33;;;;;;;4.94;100.00;102460.75;5107009;28;20036;-64
2023/12/18 02:27:43;;;;;;;11.65;2.60;;;;;;;4.93;100.00;102449.41;5106987;28;20403;-64
2023/12/18 02:30:14;;;;;;;7.53;2.17;;;;;;;4.97;100.00;102450.59;5106314;28;20047;-65
2023/12/18 02:32:39;;;;;;;7.33;2.43;;;;;;;5.00;100.00;102456.09;5094345;28;20032;-64
2023/12/18 02:35:06;;;;;;;6.70;2.65;;;;;;;5.01;100.00;102447.47;5093236;28;20047;-64
2023/12/18 02:37:31;;;;;;;7.57;2.50;;;;;;;5.09;100.00;102449.97;5093119;28;20433;-64
2023/12/18 02:39:57;;;;;;;8.95;2.85;;;;;;;5.14;100.00;102439.91;5073123;28;20125;-63
2023/12/18 02:42:22;;;;;;;6.80;2.60;;;;;;;5.22;100.00;102441.53;5052976;28;20090;-63
2023/12/18 02:44:48;;;;;;;6.60;2.20;;;;;;;5.30;100.00;102442.19;5053155;28;20029;-63
2023/12/18 02:47:13;;;;;;;7.28;2.67;;;;;;;5.37;100.00;102440.28;5052984;28;20037;-63
2023/12/18 02:49:39;;;;;;;8.77;2.67;;;;;;;5.42;100.00;102449.44;5052602;28;20117;-64
2023/12/18 02:52:04;;;;;;;10.20;2.50;;;;;;;5.48;100.00;102449.97;5052926;28;20111;-63
2023/12/18 02:54:29;;;;;;;7.77;2.67;;;;;;;5.57;100.00;102444.66;5063524;28;20032;-63
2023/12/18 02:56:55;;;;;;;7.67;2.67;;;;;;;5.62;100.00;102436.38;5062017;28;20037;-63
2023/12/18 02:59:20;;;;;;;7.33;2.77;;;;;;;5.71;100.00;102432.72;5062523;28;20278;-63
2023/12/18 03:01:46;;;;;;;7.60;3.00;;;;;;;5.74;100.00;102431.28;5092678;28;20028;-64
2023/12/18 03:04:11;;;;;;;7.50;2.80;;;;;;;5.79;100.00;102442.16;5093078;28;20051;-65
2023/12/18 03:06:36;;;;;;;7.07;2.83;;;;;;;5.83;100.00;102439.94;5092955;28;20031;-63
2023/12/18 03:09:02;;;;;;;7.57;2.47;;;;;;;5.90;100.00;102442.34;5092476;28;20163;-63
2023/12/18 03:11:27;;;;;;;6.73;2.70;;;;;;;5.94;100.00;102443.53;5092520;28;20278;-64
2023/12/18 03:13:53;;;;;;;8.30;2.83;;;;;;;5.98;100.00;102443.00;5092649;28;20118;-63
2023/12/18 03:16:18;;;;;;;8.80;2.83;;;;;;;6.02;100.00;102430.28;5092766;28;20481;-64
2023/12/18 03:18:43;;;;;;;9.93;3.07;;;;;;;6.13;100.00;102433.81;5091215;28;20034;-65
2023/12/18 03:21:10;;;;;;;7.17;2.73;;;;;;;6.19;100.00;102441.31;5092205;28;20674;-64
2023/12/18 03:23:35;;;;;;;8.23;2.85;;;;;;;6.25;100.00;102448.00;5092072;28;20036;-65
2023/12/18 03:26:01;;;;;;;7.57;2.63;;;;;;;6.34;100.00;102448.78;5090633;28;20511;-63
2023/12/18 03:28:26;;;;;;;10.67;3.27;;;;;;;6.48;100.00;102440.34;5091947;28;20442;-63
2023/12/18 03:30:52;;;;;;;11.37;3.60;;;;;;;6.65;100.00;102440.84;5091868;28;20054;-63
2023/12/18 03:33:18;;;;;;;9.05;3.00;;;;;;;6.83;100.00;102439.75;5091765;28;20047;-63
2023/12/18 03:35:43;;;;;;;8.90;3.15;;;;;;;6.96;100.00;102442.56;5091950;28;20029;-64
2023/12/18 03:38:09;;;;;;;9.63;3.10;;;;;;;7.08;100.00;102440.97;5092122;28;20157;-62
2023/12/18 03:40:34;;;;;;;12.83;4.43;;;;;;;7.18;100.00;102448.81;5091821;28;20123;-63
2023/12/18 03:42:59;;;;;;;11.87;4.07;;;;;;;7.28;100.00;102445.22;5092197;28;20024;-64
2023/12/18 03:45:25;;;;;;;9.10;3.40;;;;;;;7.34;100.00;102451.91;5092484;28;20530;-62
2023/12/18 03:47:50;;;;;;;8.90;3.53;;;;;;;7.41;100.00;102449.72;5080192;28;20029;-63
2023/12/18 03:50:15;;;;;;;13.07;3.53;;;;;;;7.47;100.00;102435.38;5054864;28;20107;-63
2023/12/18 03:52:41;;;;;;;13.40;3.90;;;;;;;7.50;100.00;102446.13;5052221;28;20033;-62
2023/12/18 03:55:06;;;;;;;12.20;4.03;;;;;;;7.53;100.00;102435.88;5051945;28;20059;-63
2023/12/18 03:57:32;;;;;;;8.90;3.53;;;;;;;7.61;100.00;102439.09;5051421;28;20041;-63
2023/12/18 03:59:58;;;;;;;10.60;3.30;;;;;;;7.64;100.00;102439.38;5070087;28;20431;-63
2023/12/18 04:02:24;;;;;;;10.52;3.90;;;;;;;7.63;100.00;102451.59;5083481;28;20029;-62
2023/12/18 04:04:51;;;;;;;13.70;4.97;;;;;;;7.64;100.00;102442.00;5051405;28;20052;-63
2023/12/18 04:07:16;;;;;;;10.43;3.97;;;;;;;7.68;100.00;102450.25;5051230;28;20033;-64
2023/12/18 04:09:42;;;;;;;10.07;4.70;;;;;;;7.71;100.00;102439.03;5050576;28;20037;-65
2023/12/18 04:12:07;;;;;;;12.90;4.53;;;;;;;7.75;99.46;102441.09;5050190;28;20043;-62
2023/12/18 04:14:33;;;;;;;10.55;4.15;;;;;;;7.76;99.03;102456.09;5049980;28;20503;-63
2023/12/18 04:16:58;;;;;;;9.47;3.73;;;;;;;7.77;98.70;102445.72;5050073;28;20049;-63
2023/12/18 04:19:23;;;;;;;9.40;3.97;;;;;;;7.78;98.51;102437.03;5049424;28;20164;-63
2023/12/18 04:21:50;;;;;;;14.10;5.03;;;;;;;7.80;98.23;102442.38;5050943;28;20120;-64
2023/12/18 04:24:16;;;;;;;9.82;4.45;;;;;;;7.80;98.28;102447.66;5051004;28;20048;-63
2023/12/18 04:26:41;;;;;;;15.33;5.27;;;;;;;7.80;98.33;102439.75;5050631;28;20400;-63
2023/12/18 04:29:06;;;;;;;11.30;5.17;;;;;;;7.81;97.94;102429.38;5050379;28;20508;-63
2023/12/18 04:31:32;;;;;;;12.83;4.97;;;;;;;7.84;97.96;102418.19;5050668;28;20276;-64
2023/12/18 04:33:57;;;;;;;12.63;4.87;;;;;;;7.85;97.36;102417.34;5050968;28;20043;-65
2023/12/18 04:36:22;;;;;;;13.80;4.73;;;;;;;7.87;96.70;102410.50;5049404;28;20037;-63
2023/12/18 04:38:48;;;;;;;12.63;5.37;;;;;;;7.89;95.93;102415.91;5049906;28;20044;-63
2023/12/18 04:41:21;;;;;;;13.63;5.45;;;;;;;7.89;95.88;102413.28;5050552;28;20048;-63
2023/12/18 04:43:46;;;;;;;13.10;4.77;;;;;;;7.89;95.47;102403.69;5050513;28;20044;-64
2023/12/18 04:46:12;;;;;;;14.02;5.63;;;;;;;7.89;96.03;102419.47;5050424;28;20040;-63
2023/12/18 04:48:37;;;;;;;10.87;4.70;;;;;;;7.91;95.68;102409.03;5050070;28;20115;-63
2023/12/18 04:51:03;;;;;;;12.97;5.07;;;;;;;7.91;95.64;102416.91;5050434;28;20643;-63
2023/12/18 04:53:30;;;;;;;13.52;5.20;;;;;;;7.90;95.73;102420.34;5050424;28;20041;-63
2023/12/18 04:55:55;;;;;;;17.47;6.03;;;;;;;7.92;95.20;102418.75;5050164;28;20729;-64
2023/12/18 04:58:20;;;;;;;13.70;5.68;;;;;;;7.91;95.48;102417.84;5050228;28;20060;-62
2023/12/18 05:00:46;;;;;;;11.67;5.00;;;;;;;7.91;95.23;102419.56;5082486;28;20036;-62
2023/12/18 05:03:11;;;;;;;11.20;5.13;;;;;;;7.92;95.60;102421.41;5090837;28;20119;-63
2023/12/18 05:05:36;;;;;;;9.27;3.90;;;;;;;7.94;94.78;102418.09;5090481;28;20036;-63
2023/12/18 05:08:02;;;;;;;12.97;5.20;;;;;;;7.94;94.64;102410.22;5090718;28;20051;-63
2023/12/18 05:10:28;;;;;;;10.80;5.10;;;;;;;7.93;94.22;102411.00;5082494;28;20045;-63
2023/12/18 05:12:53;;;;;;;19.40;6.13;;;;;;;7.94;93.74;102407.59;5050077;28;20124;-64
2023/12/18 05:15:18;;;;;;;16.17;6.10;;;;;;;7.95;93.38;102414.66;5050118;28;20543;-65
2023/12/18 05:17:44;;;;;;;11.53;5.33;;;;;;;7.92;93.31;102414.41;5050271;28;20383;-65
2023/12/18 05:20:12;;;;;;;11.80;5.53;;;;;;;7.93;93.51;102405.75;5049520;28;20411;-63
2023/12/18 05:22:38;;;;;;;16.35;5.65;;;;;;;7.92;93.33;102402.97;5050087;28;20033;-64
2023/12/18 05:25:03;;;;;;;13.50;6.00;;;;;;;7.93;93.11;102403.13;5050175;28;20037;-63
2023/12/18 05:27:29;;;;;;;12.50;5.53;;;;;;;7.93;93.36;102410.09;5050034;28;20025;-63
2023/12/18 05:29:54;;;;;;;14.13;5.77;;;;;;;7.93;93.17;102410.09;5049468;28;20040;-63
2023/12/18 05:32:19;;;;;;;15.40;5.97;;;;;;;7.93;93.60;102416.25;5049925;28;20036;-63
2023/12/18 05:34:45;;;;;;;10.20;4.37;;;;;;;7.94;93.30;102427.72;5049906;28;20041;-63
2023/12/18 05:37:10;;;;;;;14.60;6.15;;;;;;;7.94;93.18;102427.72;5049965;28;20124;-63
2023/12/18 05:39:36;;;;;;;12.53;5.50;;;;;;;7.94;92.77;102432.97;5049448;28;20033;-64
2023/12/18 05:42:01;;;;;;;14.77;6.00;;;;;;;7.93;92.94;102447.84;5049804;28;20056;-64
2023/12/18 05:44:26;;;;;;;12.40;5.80;;;;;;;7.94;92.83;102443.50;5049681;28;20100;-63
2023/12/18 05:46:52;;;;;;;12.13;5.80;;;;;;;7.95;92.73;102454.13;5049766;28;20045;-64
2023/12/18 05:49:17;;;;;;;15.50;6.37;;;;;;;7.94;92.33;102454.03;5049091;28;20136;-63
2023/12/18 05:51:42;;;;;;;15.00;5.83;;;;;;;7.93;92.57;102457.44;5049746;28;20285;-63
2023/12/18 05:54:08;;;;;;;16.33;6.80;;;;;;;7.92;92.11;102456.53;5049787;28;20520;-64
2023/12/18 05:56:33;;;;;;;19.23;6.80;;;;;;;7.92;92.15;102464.41;5049836;28;20044;-63
2023/12/18 05:59:00;;;;;;;13.80;5.17;;;;;;;7.95;92.09;102469.91;5052110;28;20074;-62
2023/12/18 06:01:25;;;;;;;13.65;7.10;;;;;;;7.94;91.65;102460.19;5090320;28;20032;-64
2023/12/18 06:03:51;;;;;;;15.70;6.03;;;;;;;7.95;91.53;102471.63;5089924;28;20047;-64
2023/12/18 06:06:16;;;;;;;12.45;6.18;;;;;;;7.96;91.08;102468.19;5090299;28;20071;-64
2023/12/18 06:08:42;;;;;;;17.53;6.03;;;;;;;7.96;91.03;102474.38;5093318;28;20039;-64
2023/12/18 06:11:07;;;;;;;13.70;5.80;;;;;;;7.99;90.40;102465.81;5093645;28;20465;-63
2023/12/18 06:13:32;;;;;;;15.45;6.53;;;;;;;7.96;89.96;102469.13;5093570;28;20115;-64
2023/12/18 06:16:00;;;;;;;13.10;5.60;;;;;;;7.94;89.74;102462.84;5093284;28;20407;-64
2023/12/18 06:18:25;;;;;;;10.43;5.03;;;;;;;7.95;89.62;102477.78;5093287;28;20040;-63
2023/12/18 06:20:50;;;;;;;10.40;5.03;;;;;;;7.94;89.72;102473.34;5092807;28;20043;-64
2023/12/18 06:23:16;;;;;;;13.97;6.60;;;;;;;7.95;89.30;102476.88;5093403;28;20052;-64
2023/12/18 06:25:41;;;;;;;11.03;4.90;;;;;;;7.96;88.93;102469.13;5093272;28;20118;-63
2023/12/18 06:28:07;;;;;;;12.50;5.87;;;;;;;7.94;88.57;102472.44;5093316;28;20152;-64
2023/12/18 06:30:32;;;;;;;11.43;5.95;;;;;;;7.95;88.28;102468.97;5092746;28;20711;-64
2023/12/18 06:32:57;;;;;;;12.47;5.40;;;;;;;7.93;87.94;102482.03;5093108;28;20057;-63
2023/12/18 06:35:23;;;;;;;12.80;5.57;;;;;;;7.95;87.56;102469.91;5093277;28;20549;-64
2023/12/18 06:37:48;;;;;;;16.17;6.13;;;;;;;7.96;87.47;102471.75;5093170;28;20119;-64
2023/12/18 06:40:13;;;;;;;13.43;6.13;;;;;;;7.97;86.72;102470.97;5092114;28;20444;-64
2023/12/18 06:42:39;;;;;;;11.75;5.47;;;;;;;7.97;86.49;102470.97;5092870;28;20032;-64
2023/12/18 06:45:05;;;;;;;13.60;5.33;;;;;;;7.95;86.47;102476.88;5091664;28;20213;-63
2023/12/18 06:47:31;;;;;;;14.50;5.15;;;;;;;7.95;86.33;102477.78;5093045;28;20449;-63
2023/12/18 06:49:56;;;;;;;10.80;4.80;;;;;;;7.97;86.24;102470.97;5092351;28;20028;-63
2023/12/18 06:52:21;;;;;;;12.43;4.57;;;;;;;7.98;85.86;102471.88;5092828;28;20024;-63
2023/12/18 06:54:47;;;;;;;8.97;4.33;;;;;;;7.98;85.99;102470.16;5092788;28;20036;-63
2023/12/18 06:57:13;;;;;;;16.63;6.45;;;;;;;7.98;85.74;102482.41;5092652;28;20073;-64
2023/12/18 06:59:38;;;;;;;18.57;6.50;;;;;;;7.97;86.13;102475.28;5085251;28;20082;-64
2023/12/18 07:02:03;;;;;;;14.17;5.77;;;;;;;7.97;85.88;102476.22;5072541;28;20044;-63
2023/12/18 07:04:29;;;;;;;12.53;5.60;;;;;;;7.96;86.10;102482.28;5072410;28;20424;-64
2023/12/18 07:06:54;;;;;;;13.17;6.00;;;;;;;7.99;85.66;102495.66;5072373;28;20047;-63
2023/12/18 07:09:20;;;;;;;13.00;5.33;;;;;;;8.00;85.59;102496.56;5071475;28;20474;-63
2023/12/18 07:11:45;;;;;;;12.50;5.40;;;;;;;8.00;85.87;102493.94;5071470;28;20036;-63
2023/12/18 07:14:10;;;;;;;15.23;5.65;;;;;;;8.00;85.67;102500.13;5071900;28;20451;-64
2023/12/18 07:16:36;;;;;;;13.07;5.03;;;;;;;8.01;85.76;102493.16;5072607;28;20377;-64
2023/12/18 07:19:01;;;;;;;12.63;5.43;;;;;;;7.99;85.91;102502.66;5071489;28;20063;-63
2023/12/18 07:21:27;;;;;;;15.67;4.83;;;;;;;8.00;85.90;102510.66;5071523;28;20028;-63
2023/12/18 07:23:52;;;;;;;13.87;4.37;;;;;;;8.25;87.18;102495.06;5072148;28;20128;-65
2023/12/18 07:26:17;;;;;;;15.95;5.35;;;;;;;9.27;90.92;102489.72;5070922;28;20037;-65
2023/12/18 07:28:45;;;;;;;17.53;6.17;;;;;;;10.05;94.98;102485.72;5070906;28;20035;-65
2023/12/18 07:31:11;;;;;;;11.68;5.78;;;;;;;10.70;96.93;102493.88;5072230;28;20128;-64
2023/12/18 07:33:36;;;;;;;10.60;5.27;;;;;;;11.15;94.23;102489.84;5064028;28;20061;-63
2023/12/18 07:36:05;;;;;;;13.32;5.80;;;;;;;11.40;90.88;102493.25;5053216;28;20532;-66
2023/12/18 07:38:30;;;;;;;11.17;5.00;;;;;;;11.53;88.17;102493.28;5053544;28;20037;-64
2023/12/18 07:40:57;;;;;;;14.43;4.82;;;;;;;11.69;86.44;102497.81;5054564;28;20028;-64
2023/12/18 07:43:23;;;;;;;12.60;5.03;;;;;;;11.92;83.79;102500.22;5068359;28;20036;-64
2023/12/18 07:45:48;;;;;;;11.90;4.47;;;;;;;11.97;81.18;102496.13;5072080;28;20098;-64
2023/12/18 07:48:13;;;;;;;12.93;5.20;;;;;;;11.95;80.08;102512.72;5071606;28;20037;-64
2023/12/18 07:50:39;;;;;;;12.10;4.70;;;;;;;11.88;79.89;102502.59;5071023;28;20047;-63
2023/12/18 07:53:04;;;;;;;10.37;5.00;;;;;;;11.91;78.91;102506.34;5071428;28;20287;-64
2023/12/18 07:55:30;;;;;;;13.07;5.17;;;;;;;11.90;78.05;102508.88;5070774;28;20032;-66
2023/12/18 07:57:55;;;;;;;12.83;5.13;;;;;;;11.33;78.08;102506.00;5070659;28;20040;-64
2023/12/18 08:00:21;;;;;;;9.95;5.18;;;;;;;10.75;79.04;102500.41;5071101;28;20457;-63
2023/12/18 08:02:46;;;;;;;14.67;4.80;;;;;;;10.32;78.90;102506.16;5071267;28;20435;-64
2023/12/18 08:05:12;;;;;;;11.27;5.00;;;;;;;9.91;79.32;102498.88;5070587;28;20508;-63
2023/12/18 08:07:37;;;;;;;11.23;5.13;;;;;;;9.58;78.98;102496.41;5071321;28;20068;-63
2023/12/18 08:10:03;;;;;;;10.17;4.37;;;;;;;9.36;79.98;102487.75;5070875;28;20036;-63
2023/12/18 08:12:28;;;;;;;10.40;4.60;;;;;;;9.19;80.27;102489.16;5071387;28;20045;-64
2023/12/18 08:14:54;;;;;;;9.40;4.60;;;;;;;9.08;80.36;102493.63;5071383;28;20469;-65
2023/12/18 08:17:19;;;;;;;11.65;4.82;;;;;;;9.00;80.85;102489.50;5071813;28;20036;-63
2023/12/18 08:19:46;;;;;;;12.30;5.80;;;;;;;8.91;80.77;102501.06;5070579;28;20078;-63
2023/12/18 08:22:11;;;;;;;9.93;4.43;;;;;;;8.84;80.81;102494.41;5071465;28;20043;-64
2023/12/18 08:24:37;;;;;;;10.27;4.47;;;;;;;8.82;80.76;102496.03;5071065;28;20037;-63
2023/12/18 08:27:03;;;;;;;12.07;5.70;;;;;;;8.82;80.63;102496.03;5070799;28;20135;-64
2023/12/18 08:29:29;;;;;;;11.68;5.22;;;;;;;8.83;80.63;102502.22;5069960;28;20036;-64
2023/12/18 08:31:55;;;;;;;11.18;3.97;;;;;;;8.85;80.57;102498.91;5069666;28;20036;-63
2023/12/18 08:34:21;;;;;;;14.87;5.07;;;;;;;8.84;80.60;102502.31;5070925;28;20032;-63
2023/12/18 08:36:46;;;;;;;10.57;4.70;;;;;;;8.81;80.68;102496.84;5070581;28;20039;-63
2023/12/18 08:39:12;;;;;;;10.97;4.63;;;;;;;8.73;80.65;102497.06;5070073;28;20078;-65
2023/12/18 08:41:38;;;;;;;12.13;4.50;;;;;;;8.68;80.91;102498.44;5070690;28;20032;-64
2023/12/18 08:44:04;;;;;;;11.48;4.20;;;;;;;8.61;81.35;102492.69;5070625;28;20400;-64
2023/12/18 08:46:30;;;;;;;11.90;4.63;;;;;;;8.62;81.60;102488.34;5070646;28;20044;-64
2023/12/18 08:48:55;;;;;;;10.97;4.43;;;;;;;8.61;81.69;102479.53;5070080;28;20044;-64
2023/12/18 08:51:20;;;;;;;10.17;4.43;;;;;;;8.59;81.44;102480.19;5070634;28;20045;-65
2023/12/18 08:53:46;;;;;;;10.90;4.55;;;;;;;8.59;81.21;102486.38;5071011;28;20107;-64
2023/12/18 08:56:11;;;;;;;10.40;4.17;;;;;;;8.56;81.60;102470.34;5071246;28;20041;-64
2023/12/18 08:58:39;;;;;;;10.57;4.57;;;;;;;8.54;81.44;102463.13;5070940;28;20033;-64
2023/12/18 09:01:05;;;;;;;10.07;4.53;;;;;;;8.55;81.45;102478.13;5089489;28;20032;-64
2023/12/18 09:03:35;;;;;;;10.50;3.93;;;;;;;8.57;81.57;102476.53;5089601;28;20115;-63
2023/12/18 09:06:02;;;;;;;11.32;4.75;;;;;;;8.63;81.43;102479.66;5090764;28;20056;-63
2023/12/18 09:08:28;;;;;;;12.68;4.82;;;;;;;8.63;81.64;102479.66;5090914;28;20046;-64
2023/12/18 09:10:53;;;;;;;11.57;4.40;;;;;;;8.64;81.61;102485.00;5090072;28;20111;-64
2023/12/18 09:13:19;;;;;;;7.30;3.47;;;;;;;8.65;81.56;102496.47;5090760;28;20518;-64
2023/12/18 09:15:44;;;;;;;11.73;4.57;;;;;;;8.60;81.67;102489.94;5090580;28;20097;-64
2023/12/18 09:18:09;;;;;;;11.20;4.50;;;;;;;8.57;82.18;102495.91;5090533;28;20480;-63
2023/12/18 09:20:35;;;;;;;9.90;4.40;;;;;;;8.63;82.02;102505.97;5089518;28;20044;-64
2023/12/18 09:25:34;;;;;;;12.73;4.40;;;;;;;8.68;81.76;102480.00;5067702;28;20369;-64
2023/12/18 09:27:59;;;;;;;10.53;4.30;;;;;;;8.66;81.47;102477.22;5067588;28;20440;-64
2023/12/18 09:30:25;;;;;;;10.87;4.50;;;;;;;8.66;81.74;102472.88;5067183;28;20271;-64
2023/12/18 09:32:50;;;;;;;16.10;4.60;;;;;;;8.68;81.75;102478.28;5067427;28;20033;-64
2023/12/18 09:35:16;;;;;;;10.67;4.33;;;;;;;8.73;81.67;102481.25;5067426;28;20093;-63
2023/12/18 09:37:41;;;;;;;11.50;5.17;;;;;;;8.75;81.77;102484.91;5067120;28;20059;-64
2023/12/18 09:40:07;;;;;;;8.87;4.47;;;;;;;8.79;81.02;102482.63;5066969;28;20124;-64
2023/12/18 09:42:33;;;;;;;10.67;5.03;;;;;;;8.81;81.04;102481.03;5067289;28;20720;-64
2023/12/18 09:45:00;;;;;;;11.13;4.85;;;;;;;8.88;80.94;102479.78;5067241;28;20123;-63
2023/12/18 09:47:26;;;;;;;11.80;4.93;;;;;;;8.89;80.77;102478.94;5067233;28;20047;-65
2023/12/18 09:49:54;;;;;;;10.73;4.47;;;;;;;8.93;80.87;102473.13;5066614;28;20028;-63
2023/12/18 09:52:22;;;;;;;10.43;4.57;;;;;;;8.94;80.56;102481.13;5067281;28;20064;-64
2023/12/18 09:54:49;;;;;;;12.80;4.47;;;;;;;8.94;80.68;102488.13;5067285;28;20040;-63
2023/12/18 09:57:17;;;;;;;11.35;4.78;;;;;;;8.93;80.87;102484.56;5066142;28;20086;-64
2023/12/18 09:59:44;;;;;;;14.40;4.90;;;;;;;8.92;81.00;102464.31;5074105;28;20115;-63
2023/12/18 10:02:11;;;;;;;10.95;4.70;;;;;;;8.87;81.13;102457.78;5087077;28;20044;-63
2023/12/18 10:04:40;;;;;;;15.07;4.87;;;;;;;8.85;81.16;102443.56;5087147;28;20185;-64
2023/12/18 10:07:05;;;;;;;14.15;5.32;;;;;;;8.84;81.19;102451.34;5086934;28;20042;-63
2023/12/18 10:09:34;;;;;;;13.13;5.05;;;;;;;8.83;81.35;102452.16;5086825;28;20111;-64
2023/12/18 10:12:00;;;;;;;12.40;5.13;;;;;;;8.81;81.65;102465.22;5086884;28;20028;-62
2023/12/18 10:14:25;;;;;;;13.47;4.80;;;;;;;8.80;81.32;102459.81;5087058;28;20506;-63
2023/12/18 10:16:51;;;;;;;14.70;5.10;;;;;;;8.77;81.23;102447.34;5086854;28;20471;-63
2023/12/18 10:19:16;;;;;;;10.23;4.20;;;;;;;9.11;82.67;102445.50;5086320;28;20055;-57
2023/12/18 10:21:43;;;;;;;15.30;5.63;;;;;;;10.08;84.20;102438.41;5086481;28;20044;-63
2023/12/18 10:24:09;;;;;;;14.97;5.93;;;;;;;10.46;84.42;102443.75;5086775;28;20782;-63
2023/12/18 10:26:34;;;;;;;11.57;4.95;;;;;;;10.98;84.11;102446.41;5086882;28;20055;-65
2023/12/18 10:29:01;;;;;;;9.93;4.30;;;;;;;11.66;83.29;102431.44;5085992;28;20552;-64
2023/12/18 10:31:26;;;;;;;12.88;4.85;;;;;;;12.33;80.58;102446.25;5086725;28;20033;-65
2023/12/18 10:33:52;;;;;;;9.85;4.63;;;;;;;12.62;78.74;102437.41;5066959;28;20031;-64
2023/12/18 10:36:18;;;;;;;10.87;4.10;;;;;;;13.09;76.32;102434.84;5036262;28;20563;-65
2023/12/18 10:38:50;;;;;;;10.35;4.03;;;;;;;13.29;74.86;102421.94;5032493;28;20057;-65
2023/12/18 10:41:20;;;;;;;11.40;3.90;;;;;;;13.35;73.73;102429.34;5032926;28;20033;-65
2023/12/18 10:43:46;;;;;;;11.52;4.53;;;;;;;13.48;72.51;102434.50;5031952;28;20041;-64
2023/12/18 10:46:12;;;;;;;9.63;4.23;;;;;;;12.96;70.75;102428.88;5032550;28;20041;-64
2023/12/18 10:48:40;;;;;;;11.15;4.25;;;;;;;12.19;71.69;102424.19;5032151;28;20095;-66
2023/12/18 10:51:07;;;;;;;10.75;4.82;;;;;;;11.59;71.94;102419.53;5032627;28;20099;-63
2023/12/18 10:53:36;;;;;;;10.88;4.63;;;;;;;11.10;72.85;102423.41;5032585;28;20029;-64
2023/12/18 10:56:04;;;;;;;10.50;4.80;;;;;;;10.73;73.56;102416.53;5032788;28;20061;-63
2023/12/18 10:58:30;;;;;;;11.07;5.77;;;;;;;10.44;74.11;102416.28;5030996;28;20061;-63
2023/12/18 11:00:56;;;;;;;11.57;4.40;;;;;;;10.25;74.58;102408.84;5067296;28;20028;-64
2023/12/18 11:03:26;;;;;;;11.23;5.10;;;;;;;10.01;74.77;102415.03;5065770;28;20036;-63
2023/12/18 11:05:54;;;;;;;12.60;4.68;;;;;;;9.87;75.15;102412.34;5052290;28;20552;-64
2023/12/18 11:08:19;;;;;;;11.70;5.50;;;;;;;9.78;75.26;102413.41;5052170;28;20493;-63
2023/12/18 11:10:45;;;;;;;10.90;5.28;;;;;;;9.65;75.09;102411.66;5049501;28;20048;-63
2023/12/18 11:13:20;;;;;;;15.13;5.50;;;;;;;9.57;75.26;102422.47;5051849;28;20044;-62
2023/12/18 11:15:59;;;;;;;12.02;5.47;;;;;;;9.50;75.47;102427.31;5052154;28;20127;-64
2023/12/18 11:18:39;;;;;;;11.90;4.40;;;;;;;9.45;75.52;102427.78;5032138;28;20048;-64
2023/12/18 11:21:04;;;;;;;11.82;5.20;;;;;;;9.33;75.79;102424.22;5032419;28;20041;-64
2023/12/18 11:23:38;;;;;;;13.60;5.63;;;;;;;9.27;75.84;102414.19;5031830;28;20029;-65
2023/12/18 11:26:05;;;;;;;12.77;5.63;;;;;;;9.22;75.87;102418.22;5039596;28;20025;-64